Home > Products > Valid Products > TAF

000
FTUS43 KARX 251720
TAFLSE
TAF
KLSE 251720Z 2518/2618 30011G18KT P6SM SCT150
     FM252300 29007KT P6SM SKC
     FM260400 VRB04KT P6SM SKC
     FM261600 14005KT P6SM SKC=



000
FTUS43 KARX 251720
TAFRST
TAF
KRST 251720Z 2518/2618 31013G21KT P6SM SCT150
     FM260000 30008KT P6SM SKC
     FM260600 VRB04KT P6SM SKC
     FM261500 14010KT P6SM SKC=



000
FTUS43 KARX 251720
TAFLSE
TAF
KLSE 251720Z 2518/2618 30011G18KT P6SM SCT150
     FM252300 29007KT P6SM SKC
     FM260400 VRB04KT P6SM SKC
     FM261600 14005KT P6SM SKC=



000
FTUS43 KARX 251720
TAFRST
TAF
KRST 251720Z 2518/2618 31013G21KT P6SM SCT150
     FM260000 30008KT P6SM SKC
     FM260600 VRB04KT P6SM SKC
     FM261500 14010KT P6SM SKC=



000
FTUS43 KARX 251124
TAFLSE
TAF
KLSE 251124Z 2512/2612 VRB04KT 1/4SM FG VV002
     FM251330 30007KT P6SM SCT003 SCT120
     FM251500 30009KT P6SM SCT120
     FM251700 30011G19KT P6SM SKC
     FM252300 29007KT P6SM SKC
     FM260600 VRB04KT P6SM SKC=



000
FTUS43 KARX 251124
TAFRST
TAF
KRST 251124Z 2512/2612 30008KT P6SM SCT120
     FM251600 31013G21KT P6SM SKC
     FM252300 30010KT P6SM SKC
     FM260600 VRB04KT P6SM SKC=



000
FTUS43 KARX 251124
TAFLSE
TAF
KLSE 251124Z 2512/2612 VRB04KT 1/4SM FG VV002
     FM251330 30007KT P6SM SCT003 SCT120
     FM251500 30009KT P6SM SCT120
     FM251700 30011G19KT P6SM SKC
     FM252300 29007KT P6SM SKC
     FM260600 VRB04KT P6SM SKC=



000
FTUS43 KARX 251124
TAFRST
TAF
KRST 251124Z 2512/2612 30008KT P6SM SCT120
     FM251600 31013G21KT P6SM SKC
     FM252300 30010KT P6SM SKC
     FM260600 VRB04KT P6SM SKC=



000
FTUS43 KARX 251112 AAC
TAFLSE
TAF AMD
KLSE 251112Z 2511/2606 VRB04KT 1/4SM FG VV002
     FM251300 30007KT P6SM SCT003 BKN120
     FM251500 30009KT P6SM SCT120
     FM251700 30011G19KT P6SM SKC
     FM252300 29007KT P6SM SKC=



000
FTUS43 KARX 251112 AAC
TAFLSE
TAF AMD
KLSE 251112Z 2511/2606 VRB04KT 1/4SM FG VV002
     FM251300 30007KT P6SM SCT003 BKN120
     FM251500 30009KT P6SM SCT120
     FM251700 30011G19KT P6SM SKC
     FM252300 29007KT P6SM SKC=



000
FTUS43 KARX 250950 CCA
TAFLSE
TAF COR
KLSE 250950Z 2510/2606 VRB04KT 3/4SM BR SCT003
      TEMPO 2510/2512 1/2SM FG VV002
     FM251300 30007KT P6SM BKN120
     FM251700 30011G19KT P6SM SKC
     FM252300 29007KT P6SM SKC=



000
FTUS43 KARX 250948 AAB
TAFLSE
TAF AMD
KLSE 250948Z 2510/2606 19007KT 3/4SM BR SCT003
      TEMPO 2510/2512 1/2SM FG VV002
     FM251700 30011G19KT P6SM SKC
     FM252300 29007KT P6SM SKC=



000
FTUS43 KARX 250754 AAA
TAFLSE
TAF AMD
KLSE 250754Z 2508/2606 19007KT 5SM BR SCT008
     FM250900 30006KT P6SM SCT150
     FM251700 30011G19KT P6SM SKC
     FM252300 29007KT P6SM SKC=



000
FTUS43 KARX 250752 AAA
TAFRST
TAF AMD
KRST 250752Z 2508/2606 30008KT P6SM SCT120
     FM251600 31013G21KT P6SM SKC
     FM252300 29007KT P6SM SKC=



000
FTUS43 KARX 250525
TAFRST
TAF
KRST 250525Z 2506/2606 23006KT 4SM BR SCT002
     FM250800 30009KT P6SM SCT150
     FM251600 31013G21KT P6SM SKC
     FM252300 29007KT P6SM SKC=



000
FTUS43 KARX 250525
TAFLSE
TAF
KLSE 250525Z 2506/2606 19005KT P6SM OVC008
      TEMPO 2506/2509 4SM BR
     FM250900 30006KT P6SM SCT150
     FM251700 30011G19KT P6SM SKC
     FM252300 29007KT P6SM SKC=



000
FTUS43 KARX 250407 AAC
TAFRST
TAF AMD
KRST 250407Z 2504/2524 20005KT 1/4SM FG VV001
     FM250600 25007KT 4SM BR SCT005
      TEMPO 2506/2508 2SM BR BKN005
     FM250800 29008KT P6SM SKC
     FM251600 31013G21KT P6SM SKC=



000
FTUS43 KARX 250407 AAC
TAFRST
TAF AMD
KRST 250407Z 2504/2524 20005KT 1/4SM FG VV001
     FM250600 25007KT 4SM BR SCT005
      TEMPO 2506/2508 2SM BR BKN005
     FM250800 29008KT P6SM SKC
     FM251600 31013G21KT P6SM SKC=



000
FTUS43 KARX 250308 AAA
TAFLSE
TAF AMD
KLSE 250308Z 2503/2524 18006KT P6SM SCT015 BKN250
      TEMPO 2503/2507 4SM BR BKN015
     FM250800 30006KT P6SM SKC
     FM251700 30011G19KT P6SM SKC=



000
FTUS43 KARX 250157 AAB
TAFRST
TAF AMD
KRST 250157Z 2502/2524 20006KT 1/4SM FG VV001
     FM250500 25007KT 4SM BR SCT005
      TEMPO 2505/2507 2SM BR BKN005
     FM250700 29008KT P6SM SKC
     FM251600 31013G21KT P6SM SKC=



000
FTUS43 KARX 250040 AAA
TAFRST
TAF AMD
KRST 250040Z 2501/2524 19006KT 3SM BR SCT005 BKN250
      TEMPO 2501/2504 3/4SM BR BKN003
     FM250700 29008KT P6SM SKC
     FM251600 31013G21KT P6SM SKC=



000
FTUS43 KARX 242330
TAFLSE
TAF
KLSE 242330Z 2500/2524 18005KT P6SM BKN015
     FM250200 20004KT P6SM SCT020 BKN250
     FM250800 30006KT P6SM SKC
     FM251700 30011G19KT P6SM SKC=



000
FTUS43 KARX 242330
TAFRST
TAF
KRST 242330Z 2500/2524 23006KT P6SM SCT015 BKN250
      TEMPO 2500/2502 4SM BR BKN010
     FM250700 29008KT P6SM SKC
     FM251600 31013G21KT P6SM SKC=



000
FTUS43 KARX 242005 AAA
TAFLSE
TAF AMD
KLSE 242005Z 2420/2518 18009KT P6SM BKN020
      TEMPO 2420/2423 5SM BR
     FM250200 20004KT P6SM SCT020
     FM250600 25006KT P6SM SKC
     FM251600 30008KT P6SM SKC=



000
FTUS43 KARX 241934 AAB
TAFRST
TAF AMD
KRST 241934Z 2420/2518 20010KT 6SM BR OVC006
     FM242330 24006KT P6SM SCT012
     FM250300 26009KT P6SM SKC
     FM251600 31012KT P6SM SKC=



000
FTUS43 KARX 241817 AAA
TAFRST
TAF AMD
KRST 241817Z 2418/2518 20010KT 2SM BR OVC004
     FM242200 20010KT 4SM BR BKN008
     FM250000 24006KT 6SM BR BKN015
     FM250300 26009KT P6SM SKC
     FM251600 31012KT P6SM SKC=



000
FTUS43 KARX 241731
TAFRST
TAF
KRST 241731Z 2418/2518 19010KT 4SM BR BKN006
      TEMPO 2419/2421 2SM BR BKN004
     FM250000 24006KT 6SM BR BKN015
     FM250300 26009KT P6SM SKC
     FM251600 31012KT P6SM SKC=



000
FTUS43 KARX 241731
TAFLSE
TAF
KLSE 241731Z 2418/2518 18008KT P6SM BKN050
     FM242000 18009KT 6SM HZ BKN012
     FM250100 20004KT 3SM BR BKN009
     FM250700 25006KT P6SM SKC
     FM251600 30008KT P6SM SKC=



000
FTUS43 KARX 241609 AAB
TAFLSE
TAF AMD
KLSE 241609Z 2416/2512 18009KT 6SM BR BKN005
     FM241700 18008KT P6SM BKN050
     FM241900 18009KT 6SM HZ BKN010
     FM250100 19004KT 3SM BR BKN009
     FM250700 28007KT P6SM SKC=



000
FTUS43 KARX 241416 AAA
TAFLSE
TAF AMD
KLSE 241416Z 2414/2512 17004KT 2SM BR OVC002
      TEMPO 2414/2415 1SM BR
     FM241600 18009KT 5SM BR OVC005
     FM241800 18009KT 6SM HZ BKN010
     FM242000 18009KT 6SM HZ BKN025
     FM250100 19004KT 3SM BR BKN009
     FM250700 28007KT P6SM SKC=



000
FTUS43 KARX 241416 AAA
TAFLSE
TAF AMD
KLSE 241416Z 2414/2512 17004KT 2SM BR OVC002
      TEMPO 2414/2415 1SM BR
     FM241600 18009KT 5SM BR OVC005
     FM241800 18009KT 6SM HZ BKN010
     FM242000 18009KT 6SM HZ BKN025
     FM250100 19004KT 3SM BR BKN009
     FM250700 28007KT P6SM SKC=



000
FTUS43 KARX 241334 AAA
TAFRST
TAF AMD
KRST 241334Z 2414/2512 16009KT 4SM BR SCT002
     FM241500 17010KT P6SM SCT004
     FM241700 18010KT 6SM HZ BKN006
     FM241900 20011KT 6SM HZ BKN011
     FM250000 22006KT 6SM BR BKN008
     FM250500 29010KT P6SM SKC=



000
FTUS43 KARX 241120
TAFRST
TAF
KRST 241120Z 2412/2512 17008KT 1/4SM FG VV001
     FM241500 17010KT 2SM BR BKN004
     FM241700 18010KT 6SM HZ BKN006
     FM241900 20011KT 6SM HZ BKN011
     FM250000 22006KT 6SM BR BKN008
     FM250500 29010KT P6SM SKC=



000
FTUS43 KARX 241120
TAFRST
TAF
KRST 241120Z 2412/2512 17008KT 1/4SM FG VV001
     FM241500 17010KT 2SM BR BKN004
     FM241700 18010KT 6SM HZ BKN006
     FM241900 20011KT 6SM HZ BKN011
     FM250000 22006KT 6SM BR BKN008
     FM250600 29010KT P6SM SKC=



000
FTUS43 KARX 241120
TAFLSE
TAF
KLSE 241120Z 2412/2512 17004KT 3SM BR OVC003
      TEMPO 2412/2414 1SM BR VV002
     FM241500 18009KT 5SM BR OVC005
     FM241800 18009KT 6SM HZ BKN010
     FM242000 18009KT 6SM HZ BKN025
     FM250100 19004KT 3SM BR BKN009
     FM250700 28007KT P6SM SKC=



000
FTUS43 KARX 241057 AAB
TAFLSE
TAF AMD
KLSE 241057Z 2411/2506 17004KT 3SM BR OVC003
      TEMPO 2412/2414 1SM BR VV002
     FM241500 18009KT 5SM BR OVC005
     FM241800 18009KT 6SM HZ BKN010
     FM242000 18009KT 6SM HZ BKN025
     FM250100 19004KT 3SM BR BKN009=



000
FTUS43 KARX 241057 AAB
TAFLSE
TAF AMD
KLSE 241057Z 2411/2506 17004KT 3SM BR OVC003
      TEMPO 2412/2414 1SM BR VV002
     FM241500 18009KT 5SM BR OVC005
     FM241800 18009KT 6SM HZ BKN010
     FM242000 18009KT 6SM HZ BKN025
     FM250100 19004KT 3SM BR BKN009=



000
FTUS43 KARX 240851 AAA
TAFLSE
TAF AMD
KLSE 240851Z 2409/2506 17004KT 1SM BR OVC002
      TEMPO 2410/2413 1/4SM FG VV002
     FM241500 17007KT 3SM BR OVC003
     FM241800 18008KT P6SM SCT250
     FM242000 18009KT P6SM SCT025=



000
FTUS43 KARX 240525
TAFRST
TAF
KRST 240525Z 2406/2506 18008KT 1/4SM FG VV002
     FM241500 17010KT 3SM BR SCT005
     FM241700 18010KT P6SM SCT250
     FM241900 18011KT P6SM SCT020
     FM250000 22006KT P6SM SCT250=



000
FTUS43 KARX 240525
TAFLSE
TAF
KLSE 240525Z 2406/2506 VRB03KT 2SM BR OVC003
     FM240800 16005KT 1/4SM FG OVC002
     FM241500 17007KT 3SM BR OVC003
     FM241800 18008KT P6SM SCT250
     FM242000 18009KT P6SM SCT025=



000
FTUS43 KARX 240308 AAB
TAFRST
TAF AMD
KRST 240308Z 2403/2424 18006KT 1 1/2SM BR SCT001
      TEMPO 2403/2406 1/2SM FG OVC001
     FM240600 20008KT 1/4SM FG VV002
     FM241300 18007KT 3SM BR SCT005
     FM241500 18010KT P6SM SCT250
     FM241800 18011KT P6SM SCT020=



000
FTUS43 KARX 240308 AAB
TAFRST
TAF AMD
KRST 240308Z 2403/2424 18006KT 1 1/2SM BR SCT001
      TEMPO 2403/2406 1/2SM FG OVC001
     FM240600 20008KT 1/4SM FG VV002
     FM241300 18007KT 3SM BR SCT005
     FM241500 18010KT P6SM SCT250
     FM241800 18011KT P6SM SCT020=



000
FTUS43 KARX 240206 AAA
TAFRST
TAF AMD
KRST 240206Z 2402/2424 18006KT 3SM BR SKC
     FM240700 20008KT 1/4SM FG VV002
     FM241300 18007KT 3SM BR SCT005
     FM241500 18010KT P6SM SCT250
     FM241800 18011KT P6SM SCT020=



000
FTUS43 KARX 240206 AAA
TAFRST
TAF AMD
KRST 240206Z 2402/2424 18006KT 3SM BR SKC
     FM240700 20008KT 1/4SM FG VV002
     FM241300 18007KT 3SM BR SCT005
     FM241500 18010KT P6SM SCT250
     FM241800 18011KT P6SM SCT020=



000
FTUS43 KARX 240133 AAA
TAFLSE
TAF AMD
KLSE 240133Z 2402/2424 VRB03KT 4SM BR OVC004
      TEMPO 2402/2406 1 1/2SM BR OVC002
     FM240600 VRB03KT 2SM BR OVC003
     FM240800 16005KT 1/4SM FG BKN002
     FM241500 17007KT 4SM BR SCT005
     FM241800 18008KT P6SM SCT250=



000
FTUS43 KARX 232330
TAFRST
TAF
KRST 232330Z 2400/2424 15004KT P6SM SKC
     FM240400 18006KT 4SM BR SKC
     FM240700 20008KT 1/4SM FG VV002
     FM241300 18007KT 3SM BR SCT005
     FM241500 18010KT P6SM SCT250
     FM241800 18011KT P6SM SCT020=



000
FTUS43 KARX 232330
TAFLSE
TAF
KLSE 232330Z 2400/2424 17005KT 4SM BR OVC005
     FM240200 19004KT 5SM BR SCT010
     FM240600 VRB03KT 2SM BR SCT005
     FM240800 16005KT 1/4SM FG BKN002
     FM241500 17007KT 4SM BR SCT005
     FM241800 18008KT P6SM SCT250=



000
FTUS43 KARX 232208 AAB
TAFLSE
TAF AMD
KLSE 232208Z 2322/2418 17005KT 4SM BR OVC005
      TEMPO 2322/2324 2SM -DZ BR
     FM240000 21005KT P6SM SCT020
     FM240100 15004KT P6SM SKC
     FM240600 16003KT 2SM BR SCT005
     FM240800 16004KT 1/4SM FG BKN002
     FM241500 18006KT 4SM BR SCT002=



000
FTUS43 KARX 231859 AAA
TAFLSE
TAF AMD
KLSE 231859Z 2319/2418 17009KT P6SM BKN008
     FM232200 21005KT P6SM SCT020
     FM240000 15004KT P6SM SKC
     FM240600 16003KT 2SM BR SCT005
     FM240800 16004KT 1/4SM FG BKN002
     FM241500 18006KT 4SM BR SCT002=



000
FTUS43 KARX 231859 AAA
TAFLSE
TAF AMD
KLSE 231859Z 2319/2418 17009KT P6SM BKN008
     FM232200 21005KT P6SM SCT020
     FM240000 15004KT P6SM SKC
     FM240600 16003KT 2SM BR SCT005
     FM240800 16004KT 1/4SM FG BKN002
     FM241500 18006KT 4SM BR SCT002=



000
FTUS43 KARX 231857 AAA
TAFRST
TAF AMD
KRST 231857Z 2319/2418 21008KT P6SM BKN005
     FM232000 25007KT P6SM SCT015
     FM240000 19006KT P6SM SKC
     FM240500 19007KT 4SM BR SKC
     FM240700 17009KT 1/4SM FG VV002
     FM241400 17010KT 3SM BR BKN004
     FM241600 18012KT P6SM SCT008=



000
FTUS43 KARX 231857 AAA
TAFRST
TAF AMD
KRST 231857Z 2319/2418 21008KT P6SM BKN005
     FM232000 25007KT P6SM SCT015
     FM240000 19006KT P6SM SKC
     FM240500 19007KT 4SM BR SKC
     FM240700 17009KT 1/4SM FG VV002
     FM241400 17010KT 3SM BR BKN004
     FM241600 18012KT P6SM SCT008=



000
FTUS43 KARX 231734
TAFRST
TAF
KRST 231734Z 2318/2418 21008KT 5SM BR BKN004
     FM232000 25007KT P6SM SCT015
     FM240000 19006KT P6SM SKC
     FM240500 19007KT 4SM BR SKC
     FM240900 17009KT 2SM BR SKC
     FM241400 17010KT P6SM SKC=



000
FTUS43 KARX 231734
TAFLSE
TAF
KLSE 231734Z 2318/2418 17009KT P6SM BKN008
     FM232200 21005KT P6SM SCT020
     FM240000 15004KT P6SM SKC
     FM240700 16003KT 2SM BR SCT005
     FM241000 16004KT 1/4SM FG BKN002
     FM241500 18006KT 4SM BR SCT002=



000
FTUS43 KARX 231608 AAC
TAFLSE
TAF AMD
KLSE 231608Z 2316/2412 17010KT 5SM -SHRA BR BKN008
     FM231900 19005KT 5SM BR BKN015
     FM232200 21005KT P6SM SCT020
     FM240000 15004KT P6SM SKC
     FM240900 16003KT 1SM BR SCT005=



000
FTUS43 KARX 231558 AAB
TAFRST
TAF AMD
KRST 231558Z 2316/2412 19010KT 2SM BR BKN003
     FM231800 24008KT 5SM BR BKN007
     FM232000 25007KT P6SM SCT015
     FM240000 19006KT P6SM SKC=



000
FTUS43 KARX 231455 AAB
TAFLSE
TAF AMD
KLSE 231455Z 2315/2412 17010KT 5SM -SHRA BR BKN012
     FM231600 18008KT P6SM BKN025
     FM232000 21005KT P6SM SKC
     FM240900 16003KT 1SM BR SCT005=



000
FTUS43 KARX 231442 AAA
TAFRST
TAF AMD
KRST 231442Z 2315/2412 19010KT 5SM BR BKN008
     FM231800 26008KT P6SM SCT030
     FM240000 19006KT P6SM SKC=



000
FTUS43 KARX 231442 AAA
TAFRST
TAF AMD
KRST 231442Z 2315/2412 19010KT 5SM BR BKN008
     FM231800 26008KT P6SM SCT030
     FM240000 19006KT P6SM SKC=



000
FTUS43 KARX 231213 AAA
TAFLSE
TAF AMD
KLSE 231213Z 2312/2412 16006KT P6SM -SHRA SCT030 OVC060
      TEMPO 2312/2315 4SM -SHRA BKN025
     FM231600 18008KT P6SM BKN025
     FM232000 21005KT P6SM SKC
     FM240900 16003KT 1SM BR SCT005=



000
FTUS43 KARX 231125
TAFLSE
TAF
KLSE 231125Z 2312/2412 16006KT P6SM -SHRA SCT030 OVC060
      TEMPO 2313/2315 4SM -SHRA BKN025
     FM231600 18008KT P6SM BKN025
     FM232000 21005KT P6SM SKC
     FM240900 16003KT 1SM BR SCT005=



000
FTUS43 KARX 231125
TAFRST
TAF
KRST 231125Z 2312/2412 18011KT P6SM -SHRA BKN020 OVC045
      TEMPO 2312/2315 3SM RA BR OVC010
     FM231500 26008KT P6SM SCT030
     FM240000 19006KT P6SM SKC=



000
FTUS43 KARX 230927 AAB
TAFRST
TAF AMD
KRST 230927Z 2309/2406 18011G18KT P6SM BKN030 OVC090
     FM231100 25006KT 5SM BR OVC015
      TEMPO 2312/2314 3SM BR OVC006
     FM231500 27008KT P6SM SCT030=



000
FTUS43 KARX 230730 AAA
TAFRST
TAF AMD
KRST 230730Z 2308/2406 18013G18KT P6SM -RA BKN045 OVC100
     FM230900 18011KT P6SM BKN020
     FM231100 25006KT 5SM BR OVC015
      TEMPO 2312/2314 1SM BR OVC006
     FM231500 27008KT P6SM SCT030=



000
FTUS43 KARX 230525
TAFLSE
TAF
KLSE 230525Z 2306/2406 16008KT P6SM VCSH BKN100
      TEMPO 2306/2307 5SM -SHRA BKN035
     FM231100 17008KT P6SM -SHRA BKN040
      TEMPO 2311/2315 5SM -SHRA BKN025
     FM231600 18008KT P6SM VCSH BKN025
     FM232200 19005KT P6SM SCT025=



000
FTUS43 KARX 230525
TAFRST
TAF
KRST 230525Z 2306/2406 18013KT P6SM VCSH SCT035 BKN070
     FM230900 18012KT P6SM -SHRA BKN035
      TEMPO 2310/2314 5SM -SHRA BKN020
     FM231400 20008KT P6SM VCSH BKN020
     FM232000 26008KT P6SM SCT020=



000
FTUS43 KARX 222330
TAFLSE
TAF
KLSE 222330Z 2300/2324 16008KT P6SM BKN100
     FM230800 16008KT P6SM VCSH SCT040 BKN080
     FM231100 17010KT 5SM -SHRA BKN025
     FM231400 17010KT 5SM -SHRA BKN015
     FM231700 18007KT P6SM SCT015 BKN050=



000
FTUS43 KARX 222330
TAFRST
TAF
KRST 222330Z 2300/2324 16014G21KT P6SM BKN100
     FM230600 18012KT P6SM VCSH SCT035 BKN070
     FM230900 18013KT 4SM -SHRA BKN020
     FM231100 18012KT 4SM -SHRA BKN008
     FM231500 22008KT P6SM SCT010 BKN050=



    US Dept of Commerce
    National Oceanic and Atmospheric Administration
    National Weather Service
    1325 East West Highway
    Silver Spring, MD 20910
    Page Author: NWS Internet Services Team
Disclaimer
Information Quality
Credits
Glossary
Privacy Policy
Freedom of Information Act (FOIA)
About Us
Career Opportunities